Accueil
METAR-TAF:

METAR-TAF

Aéroports :

Aérodrome de Koumac

Koumac, Nouvelle-Calédonie

latitude: 20-34S, longitude: 164-17E, altitude: 23 m

METAR: absent

Heure: 09:12 (22:12 UTC)

Prévision

Le bulletin a été fait il y a 5 heures et 12 minutes, à 17:00 UTC
Prévision valable du 23 à 18 UTC au 24 à 18 UTC
Vent 2 kt de direction variable
Visibilité 10 km ou plus
Nuages fragmentés à une hauteur de 6000 ft
Evoluant progressivement
du 23 à 22 UTC au 23 à 24 UTC
Vent 10 kt de sud
Temporairement
du 24 à 00 UTC au 24 à 06 UTC
Visibilité: 4000 m
Quelques nuages à une hauteur de 2000 ft, Cumulus congestus.
averses de pluie
Evoluant progressivement
du 24 à 08 UTC au 24 à 10 UTC
Vent 2 kt de direction variable

TAF: NWWK 231700Z 2318/2418 VRB02KT 9999 BKN060 BECMG 2322/2324 18010KT TEMPO 2400/2406 4000 SHRA FEW020TCU BECMG 2408/2410 VRB02KT

Observations et prévisions météorologiques de plus de 4000 aéroports (messages METAR et TAF).

Les stations disponibles sont représentées par des disques jaunes et rouges sur la carte.

Passer la souris dessus pour voir le nom de la station.

Cliquer dessus pour voir les observations et prévisions météorologiques.

Pour changer de carte: cliquez sur les boutons verts avec une croix noire pour zoomer, sur le bouton vert avec un tiret pour effectuer un zoom arrière, ou sur les flèches vertes pour les cartes adjacentes.


METAR-TAF: